sensor_id;sensor_type;location;lat;lon;timestamp;P1;durP1;ratioP1;P2;durP2;ratioP2
6342;SDS011;3204;42.698;23.298;2022-08-02T00:01:43;2.53;;;2.42;;
6342;SDS011;3204;42.698;23.298;2022-08-02T00:04:08;4.03;;;2.30;;
6342;SDS011;3204;42.698;23.298;2022-08-02T00:06:34;2.20;;;2.00;;
6342;SDS011;3204;42.698;23.298;2022-08-02T00:09:00;3.20;;;2.55;;
6342;SDS011;3204;42.698;23.298;2022-08-02T00:11:27;2.97;;;2.70;;
6342;SDS011;3204;42.698;23.298;2022-08-02T00:13:52;3.40;;;2.50;;
6342;SDS011;3204;42.698;23.298;2022-08-02T00:16:18;2.40;;;2.15;;
6342;SDS011;3204;42.698;23.298;2022-08-02T00:18:43;4.50;;;2.40;;
6342;SDS011;3204;42.698;23.298;2022-08-02T00:21:09;4.50;;;2.35;;
6342;SDS011;3204;42.698;23.298;2022-08-02T00:23:34;2.20;;;2.10;;
6342;SDS011;3204;42.698;23.298;2022-08-02T00:26:00;2.72;;;2.63;;
6342;SDS011;3204;42.698;23.298;2022-08-02T00:28:25;6.18;;;2.20;;
6342;SDS011;3204;42.698;23.298;2022-08-02T00:30:51;3.25;;;2.30;;
6342;SDS011;3204;42.698;23.298;2022-08-02T00:33:16;3.40;;;1.80;;
6342;SDS011;3204;42.698;23.298;2022-08-02T00:35:42;8.23;;;2.38;;
6342;SDS011;3204;42.698;23.298;2022-08-02T00:38:11;4.72;;;2.00;;
6342;SDS011;3204;42.698;23.298;2022-08-02T00:40:36;2.00;;;1.90;;
6342;SDS011;3204;42.698;23.298;2022-08-02T00:43:03;3.20;;;2.28;;
6342;SDS011;3204;42.698;23.298;2022-08-02T00:45:31;2.95;;;2.00;;
6342;SDS011;3204;42.698;23.298;2022-08-02T00:48:00;2.28;;;2.17;;
6342;SDS011;3204;42.698;23.298;2022-08-02T00:50:28;2.90;;;2.70;;
6342;SDS011;3204;42.698;23.298;2022-08-02T00:52:53;2.60;;;2.40;;
6342;SDS011;3204;42.698;23.298;2022-08-02T00:55:20;2.67;;;2.55;;
6342;SDS011;3204;42.698;23.298;2022-08-02T00:57:46;2.55;;;2.45;;
6342;SDS011;3204;42.698;23.298;2022-08-02T01:00:12;4.47;;;2.80;;
6342;SDS011;3204;42.698;23.298;2022-08-02T01:02:38;5.70;;;2.65;;
6342;SDS011;3204;42.698;23.298;2022-08-02T01:05:05;2.60;;;2.47;;
6342;SDS011;3204;42.698;23.298;2022-08-02T01:07:31;2.95;;;2.78;;
6342;SDS011;3204;42.698;23.298;2022-08-02T01:09:56;2.80;;;2.60;;
6342;SDS011;3204;42.698;23.298;2022-08-02T01:12:22;4.10;;;2.50;;
6342;SDS011;3204;42.698;23.298;2022-08-02T01:14:50;2.92;;;2.67;;
6342;SDS011;3204;42.698;23.298;2022-08-02T01:31:17;3.10;;;2.90;;
6342;SDS011;3204;42.698;23.298;2022-08-02T01:34:12;2.78;;;2.58;;
6342;SDS011;3204;42.698;23.298;2022-08-02T01:36:45;2.70;;;2.53;;
6342;SDS011;3204;42.698;23.298;2022-08-02T01:39:14;4.93;;;2.70;;
6342;SDS011;3204;42.698;23.298;2022-08-02T01:41:43;3.65;;;2.80;;
6342;SDS011;3204;42.698;23.298;2022-08-02T01:44:10;3.28;;;3.00;;
6342;SDS011;3204;42.698;23.298;2022-08-02T01:46:39;2.88;;;2.72;;
6342;SDS011;3204;42.698;23.298;2022-08-02T01:49:07;6.18;;;2.80;;
6342;SDS011;3204;42.698;23.298;2022-08-02T01:51:39;2.97;;;2.78;;
6342;SDS011;3204;42.698;23.298;2022-08-02T01:54:26;3.13;;;3.03;;
6342;SDS011;3204;42.698;23.298;2022-08-02T01:56:55;3.35;;;3.17;;
6342;SDS011;3204;42.698;23.298;2022-08-02T01:59:21;3.40;;;3.10;;
6342;SDS011;3204;42.698;23.298;2022-08-02T02:01:48;2.95;;;2.75;;
6342;SDS011;3204;42.698;23.298;2022-08-02T02:04:16;4.68;;;2.97;;
6342;SDS011;3204;42.698;23.298;2022-08-02T02:06:44;3.70;;;2.80;;
6342;SDS011;3204;42.698;23.298;2022-08-02T02:09:11;3.10;;;2.90;;
6342;SDS011;3204;42.698;23.298;2022-08-02T02:11:40;2.65;;;2.55;;
6342;SDS011;3204;42.698;23.298;2022-08-02T02:14:08;3.50;;;3.30;;
6342;SDS011;3204;42.698;23.298;2022-08-02T02:16:36;4.70;;;3.22;;
6342;SDS011;3204;42.698;23.298;2022-08-02T02:19:05;3.33;;;3.10;;
6342;SDS011;3204;42.698;23.298;2022-08-02T02:21:31;3.28;;;2.90;;
6342;SDS011;3204;42.698;23.298;2022-08-02T02:23:57;4.45;;;3.20;;
6342;SDS011;3204;42.698;23.298;2022-08-02T02:26:23;4.18;;;2.97;;
6342;SDS011;3204;42.698;23.298;2022-08-02T02:28:50;4.55;;;3.10;;
6342;SDS011;3204;42.698;23.298;2022-08-02T02:31:18;6.00;;;3.17;;
6342;SDS011;3204;42.698;23.298;2022-08-02T02:33:49;3.88;;;3.40;;
6342;SDS011;3204;42.698;23.298;2022-08-02T02:36:21;3.45;;;3.20;;
6342;SDS011;3204;42.698;23.298;2022-08-02T02:38:47;3.40;;;3.20;;
6342;SDS011;3204;42.698;23.298;2022-08-02T02:41:17;5.97;;;3.15;;
6342;SDS011;3204;42.698;23.298;2022-08-02T02:43:45;4.00;;;3.20;;
6342;SDS011;3204;42.698;23.298;2022-08-02T02:46:12;5.35;;;3.30;;
6342;SDS011;3204;42.698;23.298;2022-08-02T02:48:39;3.85;;;3.17;;
6342;SDS011;3204;42.698;23.298;2022-08-02T02:51:05;3.00;;;2.80;;
6342;SDS011;3204;42.698;23.298;2022-08-02T02:53:32;3.22;;;3.13;;
6342;SDS011;3204;42.698;23.298;2022-08-02T02:56:00;3.65;;;3.45;;
6342;SDS011;3204;42.698;23.298;2022-08-02T02:58:26;3.40;;;3.10;;
6342;SDS011;3204;42.698;23.298;2022-08-02T03:00:52;3.38;;;3.25;;
6342;SDS011;3204;42.698;23.298;2022-08-02T03:03:59;3.25;;;3.13;;
6342;SDS011;3204;42.698;23.298;2022-08-02T03:06:26;12.82;;;4.32;;
6342;SDS011;3204;42.698;23.298;2022-08-02T03:08:52;26.48;;;4.80;;
6342;SDS011;3204;42.698;23.298;2022-08-02T03:11:18;14.82;;;3.50;;
6342;SDS011;3204;42.698;23.298;2022-08-02T03:13:44;9.27;;;3.88;;
6342;SDS011;3204;42.698;23.298;2022-08-02T03:16:11;3.20;;;3.00;;
6342;SDS011;3204;42.698;23.298;2022-08-02T03:18:40;4.20;;;3.50;;
6342;SDS011;3204;42.698;23.298;2022-08-02T03:21:08;7.22;;;3.47;;
6342;SDS011;3204;42.698;23.298;2022-08-02T03:23:39;11.45;;;3.75;;
6342;SDS011;3204;42.698;23.298;2022-08-02T03:26:06;9.10;;;4.05;;
6342;SDS011;3204;42.698;23.298;2022-08-02T03:28:32;4.85;;;4.38;;
6342;SDS011;3204;42.698;23.298;2022-08-02T03:30:57;4.38;;;3.97;;
6342;SDS011;3204;42.698;23.298;2022-08-02T03:33:24;3.78;;;3.58;;
6342;SDS011;3204;42.698;23.298;2022-08-02T03:35:51;4.85;;;3.85;;
6342;SDS011;3204;42.698;23.298;2022-08-02T03:38:19;8.13;;;4.20;;
6342;SDS011;3204;42.698;23.298;2022-08-02T03:40:46;5.85;;;4.53;;
6342;SDS011;3204;42.698;23.298;2022-08-02T03:43:13;4.15;;;3.85;;
6342;SDS011;3204;42.698;23.298;2022-08-02T03:45:44;4.38;;;3.92;;
6342;SDS011;3204;42.698;23.298;2022-08-02T03:48:12;4.22;;;3.90;;
6342;SDS011;3204;42.698;23.298;2022-08-02T03:50:38;6.60;;;4.18;;
6342;SDS011;3204;42.698;23.298;2022-08-02T03:53:05;4.70;;;4.15;;
6342;SDS011;3204;42.698;23.298;2022-08-02T03:55:32;7.88;;;4.05;;
6342;SDS011;3204;42.698;23.298;2022-08-02T03:57:58;4.93;;;4.38;;
6342;SDS011;3204;42.698;23.298;2022-08-02T04:00:24;6.88;;;3.90;;
6342;SDS011;3204;42.698;23.298;2022-08-02T04:02:50;11.60;;;4.72;;
6342;SDS011;3204;42.698;23.298;2022-08-02T04:05:16;6.82;;;4.40;;
6342;SDS011;3204;42.698;23.298;2022-08-02T04:07:42;5.18;;;4.80;;
6342;SDS011;3204;42.698;23.298;2022-08-02T04:10:08;6.20;;;4.20;;
6342;SDS011;3204;42.698;23.298;2022-08-02T04:12:34;9.98;;;4.65;;
6342;SDS011;3204;42.698;23.298;2022-08-02T04:15:00;8.57;;;4.35;;
6342;SDS011;3204;42.698;23.298;2022-08-02T04:17:27;11.52;;;4.82;;
6342;SDS011;3204;42.698;23.298;2022-08-02T04:20:00;6.22;;;4.22;;
6342;SDS011;3204;42.698;23.298;2022-08-02T04:22:30;12.85;;;5.03;;
6342;SDS011;3204;42.698;23.298;2022-08-02T04:25:03;5.22;;;4.43;;
6342;SDS011;3204;42.698;23.298;2022-08-02T04:27:31;5.65;;;3.88;;
6342;SDS011;3204;42.698;23.298;2022-08-02T04:30:00;5.28;;;4.60;;
6342;SDS011;3204;42.698;23.298;2022-08-02T04:32:27;4.55;;;4.15;;
6342;SDS011;3204;42.698;23.298;2022-08-02T04:34:53;4.15;;;3.85;;
6342;SDS011;3204;42.698;23.298;2022-08-02T04:37:19;6.80;;;4.88;;
6342;SDS011;3204;42.698;23.298;2022-08-02T04:39:45;4.10;;;3.85;;
6342;SDS011;3204;42.698;23.298;2022-08-02T04:42:18;4.25;;;3.75;;
6342;SDS011;3204;42.698;23.298;2022-08-02T04:44:44;3.70;;;3.40;;
6342;SDS011;3204;42.698;23.298;2022-08-02T04:47:10;7.60;;;4.07;;
6342;SDS011;3204;42.698;23.298;2022-08-02T04:49:36;5.40;;;4.93;;
6342;SDS011;3204;42.698;23.298;2022-08-02T04:52:01;9.35;;;4.10;;
6342;SDS011;3204;42.698;23.298;2022-08-02T04:54:27;5.13;;;4.43;;
6342;SDS011;3204;42.698;23.298;2022-08-02T04:56:53;5.78;;;4.40;;
6342;SDS011;3204;42.698;23.298;2022-08-02T04:59:18;5.20;;;4.70;;
6342;SDS011;3204;42.698;23.298;2022-08-02T05:01:44;5.00;;;4.53;;
6342;SDS011;3204;42.698;23.298;2022-08-02T05:04:09;8.88;;;4.88;;
6342;SDS011;3204;42.698;23.298;2022-08-02T05:06:35;10.35;;;4.97;;
6342;SDS011;3204;42.698;23.298;2022-08-02T05:09:00;9.77;;;5.20;;
6342;SDS011;3204;42.698;23.298;2022-08-02T05:11:26;9.43;;;5.38;;
6342;SDS011;3204;42.698;23.298;2022-08-02T05:13:51;8.02;;;5.55;;
6342;SDS011;3204;42.698;23.298;2022-08-02T05:16:17;10.13;;;4.97;;
6342;SDS011;3204;42.698;23.298;2022-08-02T05:18:42;6.72;;;5.00;;
6342;SDS011;3204;42.698;23.298;2022-08-02T05:21:08;5.90;;;4.80;;
6342;SDS011;3204;42.698;23.298;2022-08-02T05:23:34;5.85;;;4.97;;
6342;SDS011;3204;42.698;23.298;2022-08-02T05:25:59;11.75;;;5.53;;
6342;SDS011;3204;42.698;23.298;2022-08-02T05:28:25;5.78;;;5.22;;
6342;SDS011;3204;42.698;23.298;2022-08-02T05:30:50;6.72;;;5.22;;
6342;SDS011;3204;42.698;23.298;2022-08-02T05:33:16;7.40;;;5.72;;
6342;SDS011;3204;42.698;23.298;2022-08-02T05:35:42;8.77;;;5.88;;
6342;SDS011;3204;42.698;23.298;2022-08-02T05:38:07;9.80;;;5.45;;
6342;SDS011;3204;42.698;23.298;2022-08-02T05:40:33;4.88;;;4.47;;
6342;SDS011;3204;42.698;23.298;2022-08-02T05:42:58;5.38;;;4.88;;
6342;SDS011;3204;42.698;23.298;2022-08-02T05:45:24;5.63;;;4.70;;
6342;SDS011;3204;42.698;23.298;2022-08-02T05:47:49;6.32;;;5.82;;
6342;SDS011;3204;42.698;23.298;2022-08-02T05:50:16;5.40;;;4.30;;
6342;SDS011;3204;42.698;23.298;2022-08-02T05:55:17;5.75;;;3.63;;
6342;SDS011;3204;42.698;23.298;2022-08-02T06:00:31;4.63;;;3.85;;
6342;SDS011;3204;42.698;23.298;2022-08-02T06:03:59;6.18;;;4.13;;
6342;SDS011;3204;42.698;23.298;2022-08-02T06:06:09;5.30;;;3.72;;
6342;SDS011;3204;42.698;23.298;2022-08-02T06:08:40;4.22;;;3.60;;
6342;SDS011;3204;42.698;23.298;2022-08-02T06:11:11;4.13;;;3.20;;
6342;SDS011;3204;42.698;23.298;2022-08-02T06:13:39;7.43;;;3.88;;
6342;SDS011;3204;42.698;23.298;2022-08-02T06:16:06;3.70;;;3.40;;
6342;SDS011;3204;42.698;23.298;2022-08-02T06:18:32;3.35;;;3.10;;
6342;SDS011;3204;42.698;23.298;2022-08-02T06:21:03;2.92;;;2.60;;
6342;SDS011;3204;42.698;23.298;2022-08-02T06:23:30;5.85;;;2.60;;
6342;SDS011;3204;42.698;23.298;2022-08-02T06:25:56;3.45;;;2.40;;
6342;SDS011;3204;42.698;23.298;2022-08-02T06:28:23;2.33;;;2.20;;
6342;SDS011;3204;42.698;23.298;2022-08-02T06:30:48;3.08;;;2.80;;
6342;SDS011;3204;42.698;23.298;2022-08-02T06:33:15;2.13;;;2.03;;
6342;SDS011;3204;42.698;23.298;2022-08-02T06:35:44;4.90;;;2.45;;
6342;SDS011;3204;42.698;23.298;2022-08-02T06:38:11;2.25;;;2.15;;
6342;SDS011;3204;42.698;23.298;2022-08-02T06:43:33;4.53;;;2.03;;
6342;SDS011;3204;42.698;23.298;2022-08-02T06:46:02;2.30;;;2.10;;
6342;SDS011;3204;42.698;23.298;2022-08-02T06:48:29;2.60;;;2.50;;
6342;SDS011;3204;42.698;23.298;2022-08-02T06:50:54;2.13;;;2.00;;
6342;SDS011;3204;42.698;23.298;2022-08-02T06:53:20;6.30;;;2.10;;
6342;SDS011;3204;42.698;23.298;2022-08-02T06:55:46;2.70;;;2.40;;
6342;SDS011;3204;42.698;23.298;2022-08-02T06:58:12;3.00;;;2.80;;
6342;SDS011;3204;42.698;23.298;2022-08-02T07:00:38;2.95;;;2.50;;
6342;SDS011;3204;42.698;23.298;2022-08-02T07:03:05;4.95;;;2.40;;
6342;SDS011;3204;42.698;23.298;2022-08-02T07:05:31;2.38;;;2.17;;
6342;SDS011;3204;42.698;23.298;2022-08-02T07:07:57;2.33;;;2.20;;
6342;SDS011;3204;42.698;23.298;2022-08-02T07:10:22;2.83;;;2.20;;
6342;SDS011;3204;42.698;23.298;2022-08-02T07:12:48;2.92;;;2.10;;
6342;SDS011;3204;42.698;23.298;2022-08-02T07:15:13;2.42;;;2.28;;
6342;SDS011;3204;42.698;23.298;2022-08-02T07:17:40;1.88;;;1.70;;
6342;SDS011;3204;42.698;23.298;2022-08-02T07:20:06;2.45;;;1.83;;
6342;SDS011;3204;42.698;23.298;2022-08-02T07:22:31;6.57;;;2.40;;
6342;SDS011;3204;42.698;23.298;2022-08-02T07:24:58;3.92;;;2.30;;
6342;SDS011;3204;42.698;23.298;2022-08-02T07:27:24;2.30;;;2.20;;
6342;SDS011;3204;42.698;23.298;2022-08-02T07:29:50;2.53;;;2.10;;
6342;SDS011;3204;42.698;23.298;2022-08-02T07:32:17;2.00;;;1.90;;
6342;SDS011;3204;42.698;23.298;2022-08-02T07:34:44;2.65;;;2.30;;
6342;SDS011;3204;42.698;23.298;2022-08-02T07:37:11;3.30;;;2.50;;
6342;SDS011;3204;42.698;23.298;2022-08-02T07:39:37;2.20;;;2.10;;
6342;SDS011;3204;42.698;23.298;2022-08-02T07:42:02;4.57;;;2.50;;
6342;SDS011;3204;42.698;23.298;2022-08-02T07:44:28;2.90;;;2.67;;
6342;SDS011;3204;42.698;23.298;2022-08-02T07:46:58;3.50;;;2.53;;
6342;SDS011;3204;42.698;23.298;2022-08-02T07:49:25;2.63;;;2.42;;
6342;SDS011;3204;42.698;23.298;2022-08-02T07:51:51;2.42;;;2.33;;
6342;SDS011;3204;42.698;23.298;2022-08-02T07:54:16;2.47;;;2.38;;
6342;SDS011;3204;42.698;23.298;2022-08-02T07:56:41;3.03;;;2.00;;
6342;SDS011;3204;42.698;23.298;2022-08-02T07:59:07;2.17;;;2.08;;
6342;SDS011;3204;42.698;23.298;2022-08-02T08:01:34;2.35;;;2.25;;
6342;SDS011;3204;42.698;23.298;2022-08-02T08:04:00;8.10;;;2.00;;
6342;SDS011;3204;42.698;23.298;2022-08-02T08:09:19;3.30;;;1.90;;
6342;SDS011;3204;42.698;23.298;2022-08-02T08:11:45;3.38;;;1.90;;
6342;SDS011;3204;42.698;23.298;2022-08-02T08:14:11;4.82;;;1.92;;
6342;SDS011;3204;42.698;23.298;2022-08-02T08:16:36;2.65;;;1.40;;
6342;SDS011;3204;42.698;23.298;2022-08-02T08:19:02;1.65;;;1.60;;
6342;SDS011;3204;42.698;23.298;2022-08-02T08:21:28;1.70;;;1.50;;
6342;SDS011;3204;42.698;23.298;2022-08-02T08:23:54;1.30;;;1.30;;
6342;SDS011;3204;42.698;23.298;2022-08-02T08:26:19;1.50;;;1.40;;
6342;SDS011;3204;42.698;23.298;2022-08-02T08:28:45;1.60;;;1.50;;
6342;SDS011;3204;42.698;23.298;2022-08-02T08:31:11;3.58;;;1.63;;
6342;SDS011;3204;42.698;23.298;2022-08-02T08:33:36;1.33;;;1.33;;
6342;SDS011;3204;42.698;23.298;2022-08-02T08:36:02;1.52;;;1.42;;
6342;SDS011;3204;42.698;23.298;2022-08-02T08:38:28;1.52;;;1.42;;
6342;SDS011;3204;42.698;23.298;2022-08-02T08:40:54;4.80;;;1.27;;
6342;SDS011;3204;42.698;23.298;2022-08-02T08:43:24;2.90;;;1.60;;
6342;SDS011;3204;42.698;23.298;2022-08-02T08:45:50;3.38;;;1.50;;
6342;SDS011;3204;42.698;23.298;2022-08-02T08:48:16;4.32;;;1.48;;
6342;SDS011;3204;42.698;23.298;2022-08-02T08:50:52;1.45;;;1.27;;
6342;SDS011;3204;42.698;23.298;2022-08-02T08:53:21;5.63;;;1.42;;
6342;SDS011;3204;42.698;23.298;2022-08-02T08:55:50;1.60;;;1.50;;
6342;SDS011;3204;42.698;23.298;2022-08-02T08:58:17;3.60;;;1.27;;
6342;SDS011;3204;42.698;23.298;2022-08-02T09:00:43;1.30;;;1.30;;
6342;SDS011;3204;42.698;23.298;2022-08-02T09:03:09;1.83;;;1.30;;
6342;SDS011;3204;42.698;23.298;2022-08-02T09:05:38;1.27;;;1.27;;
6342;SDS011;3204;42.698;23.298;2022-08-02T09:08:05;3.70;;;1.25;;
6342;SDS011;3204;42.698;23.298;2022-08-02T09:15:40;1.30;;;1.20;;
6342;SDS011;3204;42.698;23.298;2022-08-02T09:18:06;6.70;;;1.40;;
6342;SDS011;3204;42.698;23.298;2022-08-02T09:20:33;2.75;;;1.20;;
6342;SDS011;3204;42.698;23.298;2022-08-02T09:23:06;2.83;;;1.35;;
6342;SDS011;3204;42.698;23.298;2022-08-02T09:25:33;1.45;;;1.35;;
6342;SDS011;3204;42.698;23.298;2022-08-02T09:27:59;1.40;;;1.40;;
6342;SDS011;3204;42.698;23.298;2022-08-02T09:30:26;4.22;;;1.38;;
6342;SDS011;3204;42.698;23.298;2022-08-02T09:32:51;1.50;;;1.40;;
6342;SDS011;3204;42.698;23.298;2022-08-02T09:35:30;1.20;;;1.10;;
6342;SDS011;3204;42.698;23.298;2022-08-02T09:38:06;1.40;;;1.30;;
6342;SDS011;3204;42.698;23.298;2022-08-02T09:40:34;1.38;;;1.02;;
6342;SDS011;3204;42.698;23.298;2022-08-02T09:43:01;1.00;;;1.00;;
6342;SDS011;3204;42.698;23.298;2022-08-02T09:45:30;1.13;;;1.00;;
6342;SDS011;3204;42.698;23.298;2022-08-02T09:48:06;1.70;;;1.60;;
6342;SDS011;3204;42.698;23.298;2022-08-02T09:50:33;1.88;;;1.55;;
6342;SDS011;3204;42.698;23.298;2022-08-02T09:53:00;1.15;;;1.13;;
6342;SDS011;3204;42.698;23.298;2022-08-02T09:55:27;8.90;;;1.48;;
6342;SDS011;3204;42.698;23.298;2022-08-02T09:57:53;3.13;;;1.50;;
6342;SDS011;3204;42.698;23.298;2022-08-02T10:00:19;1.10;;;1.10;;
6342;SDS011;3204;42.698;23.298;2022-08-02T10:03:26;1.25;;;1.00;;
6342;SDS011;3204;42.698;23.298;2022-08-02T10:05:47;2.25;;;0.90;;
6342;SDS011;3204;42.698;23.298;2022-08-02T10:08:18;0.93;;;0.93;;
6342;SDS011;3204;42.698;23.298;2022-08-02T10:10:44;1.00;;;1.00;;
6342;SDS011;3204;42.698;23.298;2022-08-02T10:13:10;1.10;;;1.10;;
6342;SDS011;3204;42.698;23.298;2022-08-02T10:15:36;0.70;;;0.70;;
6342;SDS011;3204;42.698;23.298;2022-08-02T10:18:03;0.70;;;0.70;;
6342;SDS011;3204;42.698;23.298;2022-08-02T10:20:29;1.02;;;0.98;;
6342;SDS011;3204;42.698;23.298;2022-08-02T10:23:00;1.25;;;1.17;;
6342;SDS011;3204;42.698;23.298;2022-08-02T10:25:27;2.88;;;0.90;;
6342;SDS011;3204;42.698;23.298;2022-08-02T10:27:54;0.80;;;0.80;;
6342;SDS011;3204;42.698;23.298;2022-08-02T10:30:22;1.00;;;1.00;;
6342;SDS011;3204;42.698;23.298;2022-08-02T10:32:50;1.00;;;1.00;;
6342;SDS011;3204;42.698;23.298;2022-08-02T10:35:19;1.52;;;0.88;;
6342;SDS011;3204;42.698;23.298;2022-08-02T10:37:47;1.00;;;0.90;;
6342;SDS011;3204;42.698;23.298;2022-08-02T10:40:17;0.93;;;0.70;;
6342;SDS011;3204;42.698;23.298;2022-08-02T10:42:56;1.25;;;0.70;;
6342;SDS011;3204;42.698;23.298;2022-08-02T10:45:23;1.33;;;1.00;;
6342;SDS011;3204;42.698;23.298;2022-08-02T10:55:55;1.42;;;0.70;;
6342;SDS011;3204;42.698;23.298;2022-08-02T10:58:22;1.15;;;0.60;;
6342;SDS011;3204;42.698;23.298;2022-08-02T11:00:50;1.00;;;1.00;;
6342;SDS011;3204;42.698;23.298;2022-08-02T11:06:03;1.02;;;0.70;;
6342;SDS011;3204;42.698;23.298;2022-08-02T11:08:29;1.50;;;1.50;;
6342;SDS011;3204;42.698;23.298;2022-08-02T11:11:37;1.15;;;0.90;;
6342;SDS011;3204;42.698;23.298;2022-08-02T11:19:19;1.52;;;0.90;;
6342;SDS011;3204;42.698;23.298;2022-08-02T11:24:30;0.80;;;0.80;;
6342;SDS011;3204;42.698;23.298;2022-08-02T11:26:58;1.75;;;1.05;;
6342;SDS011;3204;42.698;23.298;2022-08-02T11:29:33;0.82;;;0.82;;
6342;SDS011;3204;42.698;23.298;2022-08-02T11:31:58;0.93;;;0.90;;
6342;SDS011;3204;42.698;23.298;2022-08-02T11:34:24;1.98;;;1.00;;
6342;SDS011;3204;42.698;23.298;2022-08-02T11:36:51;1.67;;;0.88;;
6342;SDS011;3204;42.698;23.298;2022-08-02T11:39:17;1.88;;;1.77;;
6342;SDS011;3204;42.698;23.298;2022-08-02T11:41:51;1.40;;;1.00;;
6342;SDS011;3204;42.698;23.298;2022-08-02T11:44:17;1.30;;;0.82;;
6342;SDS011;3204;42.698;23.298;2022-08-02T11:46:43;1.17;;;0.90;;
6342;SDS011;3204;42.698;23.298;2022-08-02T11:49:13;0.90;;;0.90;;
6342;SDS011;3204;42.698;23.298;2022-08-02T11:51:50;0.80;;;0.80;;
6342;SDS011;3204;42.698;23.298;2022-08-02T11:54:29;1.35;;;0.73;;
6342;SDS011;3204;42.698;23.298;2022-08-02T11:57:13;2.78;;;1.00;;
6342;SDS011;3204;42.698;23.298;2022-08-02T11:59:41;0.60;;;0.60;;
6342;SDS011;3204;42.698;23.298;2022-08-02T12:02:10;2.35;;;0.93;;
6342;SDS011;3204;42.698;23.298;2022-08-02T12:04:36;0.80;;;0.80;;
6342;SDS011;3204;42.698;23.298;2022-08-02T12:07:03;1.08;;;1.08;;
6342;SDS011;3204;42.698;23.298;2022-08-02T12:09:30;0.80;;;0.80;;
6342;SDS011;3204;42.698;23.298;2022-08-02T12:11:57;1.40;;;1.00;;
6342;SDS011;3204;42.698;23.298;2022-08-02T12:14:23;4.65;;;4.45;;
6342;SDS011;3204;42.698;23.298;2022-08-02T12:16:51;1.00;;;1.00;;
6342;SDS011;3204;42.698;23.298;2022-08-02T12:19:35;0.80;;;0.80;;
6342;SDS011;3204;42.698;23.298;2022-08-02T12:22:09;4.85;;;1.00;;
6342;SDS011;3204;42.698;23.298;2022-08-02T12:24:37;1.15;;;1.00;;
6342;SDS011;3204;42.698;23.298;2022-08-02T12:27:03;0.70;;;0.70;;
6342;SDS011;3204;42.698;23.298;2022-08-02T12:29:30;0.90;;;0.90;;
6342;SDS011;3204;42.698;23.298;2022-08-02T12:31:57;0.68;;;0.68;;
6342;SDS011;3204;42.698;23.298;2022-08-02T12:34:24;1.40;;;0.70;;
6342;SDS011;3204;42.698;23.298;2022-08-02T12:36:58;1.40;;;0.90;;
6342;SDS011;3204;42.698;23.298;2022-08-02T12:39:43;0.80;;;0.70;;
6342;SDS011;3204;42.698;23.298;2022-08-02T12:42:10;0.90;;;0.90;;
6342;SDS011;3204;42.698;23.298;2022-08-02T12:44:48;0.80;;;0.80;;
6342;SDS011;3204;42.698;23.298;2022-08-02T12:47:24;0.88;;;0.82;;
6342;SDS011;3204;42.698;23.298;2022-08-02T12:52:49;0.88;;;0.88;;
6342;SDS011;3204;42.698;23.298;2022-08-02T12:55:19;0.90;;;0.90;;
6342;SDS011;3204;42.698;23.298;2022-08-02T12:57:55;0.82;;;0.82;;
6342;SDS011;3204;42.698;23.298;2022-08-02T13:00:29;4.45;;;1.00;;
6342;SDS011;3204;42.698;23.298;2022-08-02T13:02:59;1.50;;;0.90;;
6342;SDS011;3204;42.698;23.298;2022-08-02T13:05:25;0.88;;;0.88;;
6342;SDS011;3204;42.698;23.298;2022-08-02T13:07:53;1.23;;;1.13;;
6342;SDS011;3204;42.698;23.298;2022-08-02T13:10:19;1.30;;;0.90;;
6342;SDS011;3204;42.698;23.298;2022-08-02T13:12:45;1.60;;;0.90;;
6342;SDS011;3204;42.698;23.298;2022-08-02T13:15:10;0.80;;;0.80;;
6342;SDS011;3204;42.698;23.298;2022-08-02T13:17:36;1.13;;;0.90;;
6342;SDS011;3204;42.698;23.298;2022-08-02T13:20:03;3.33;;;1.00;;
6342;SDS011;3204;42.698;23.298;2022-08-02T13:22:29;0.73;;;0.73;;
6342;SDS011;3204;42.698;23.298;2022-08-02T13:24:55;1.02;;;1.02;;
6342;SDS011;3204;42.698;23.298;2022-08-02T13:27:21;3.88;;;1.10;;
6342;SDS011;3204;42.698;23.298;2022-08-02T13:29:48;1.90;;;1.80;;
6342;SDS011;3204;42.698;23.298;2022-08-02T13:32:14;1.60;;;1.00;;
6342;SDS011;3204;42.698;23.298;2022-08-02T13:34:39;1.00;;;1.00;;
6342;SDS011;3204;42.698;23.298;2022-08-02T13:37:05;1.65;;;1.33;;
6342;SDS011;3204;42.698;23.298;2022-08-02T13:39:30;3.92;;;1.42;;
6342;SDS011;3204;42.698;23.298;2022-08-02T13:41:56;1.00;;;0.80;;
6342;SDS011;3204;42.698;23.298;2022-08-02T13:44:22;0.80;;;0.80;;
6342;SDS011;3204;42.698;23.298;2022-08-02T13:46:47;0.95;;;0.90;;
6342;SDS011;3204;42.698;23.298;2022-08-02T13:49:13;0.80;;;0.80;;
6342;SDS011;3204;42.698;23.298;2022-08-02T13:51:39;0.75;;;0.70;;
6342;SDS011;3204;42.698;23.298;2022-08-02T13:54:04;0.80;;;0.80;;
6342;SDS011;3204;42.698;23.298;2022-08-02T13:56:30;0.80;;;0.80;;
6342;SDS011;3204;42.698;23.298;2022-08-02T13:58:56;34.45;;;5.53;;
6342;SDS011;3204;42.698;23.298;2022-08-02T14:01:23;1.75;;;1.00;;
6342;SDS011;3204;42.698;23.298;2022-08-02T14:03:49;0.90;;;0.90;;
6342;SDS011;3204;42.698;23.298;2022-08-02T14:06:15;1.00;;;1.00;;
6342;SDS011;3204;42.698;23.298;2022-08-02T14:08:41;1.00;;;0.90;;
6342;SDS011;3204;42.698;23.298;2022-08-02T14:11:06;2.25;;;0.80;;
6342;SDS011;3204;42.698;23.298;2022-08-02T14:13:32;0.75;;;0.75;;
6342;SDS011;3204;42.698;23.298;2022-08-02T14:15:58;0.90;;;0.90;;
6342;SDS011;3204;42.698;23.298;2022-08-02T14:18:24;0.82;;;0.80;;
6342;SDS011;3204;42.698;23.298;2022-08-02T14:20:49;0.90;;;0.90;;
6342;SDS011;3204;42.698;23.298;2022-08-02T14:23:14;0.80;;;0.80;;
6342;SDS011;3204;42.698;23.298;2022-08-02T14:25:40;2.08;;;0.88;;
6342;SDS011;3204;42.698;23.298;2022-08-02T14:28:05;0.80;;;0.80;;
6342;SDS011;3204;42.698;23.298;2022-08-02T14:30:32;0.80;;;0.80;;
6342;SDS011;3204;42.698;23.298;2022-08-02T14:32:58;1.13;;;0.90;;
6342;SDS011;3204;42.698;23.298;2022-08-02T14:35:24;0.90;;;0.90;;
6342;SDS011;3204;42.698;23.298;2022-08-02T14:37:49;1.42;;;0.90;;
6342;SDS011;3204;42.698;23.298;2022-08-02T14:40:15;0.70;;;0.70;;
6342;SDS011;3204;42.698;23.298;2022-08-02T14:42:40;0.68;;;0.68;;
6342;SDS011;3204;42.698;23.298;2022-08-02T14:45:06;1.05;;;1.05;;
6342;SDS011;3204;42.698;23.298;2022-08-02T14:47:32;1.10;;;1.00;;
6342;SDS011;3204;42.698;23.298;2022-08-02T14:49:57;1.42;;;1.00;;
6342;SDS011;3204;42.698;23.298;2022-08-02T14:52:23;0.70;;;0.70;;
6342;SDS011;3204;42.698;23.298;2022-08-02T14:54:48;5.65;;;0.90;;
6342;SDS011;3204;42.698;23.298;2022-08-02T14:57:14;3.58;;;1.10;;
6342;SDS011;3204;42.698;23.298;2022-08-02T14:59:40;5.13;;;1.00;;
6342;SDS011;3204;42.698;23.298;2022-08-02T15:02:06;1.20;;;1.05;;
6342;SDS011;3204;42.698;23.298;2022-08-02T15:04:31;1.75;;;1.40;;
6342;SDS011;3204;42.698;23.298;2022-08-02T15:06:58;1.50;;;1.13;;
6342;SDS011;3204;42.698;23.298;2022-08-02T15:09:24;1.42;;;1.35;;
6342;SDS011;3204;42.698;23.298;2022-08-02T15:11:50;1.67;;;1.00;;
6342;SDS011;3204;42.698;23.298;2022-08-02T15:14:16;0.82;;;0.82;;
6342;SDS011;3204;42.698;23.298;2022-08-02T15:16:42;0.90;;;0.90;;
6342;SDS011;3204;42.698;23.298;2022-08-02T15:19:07;0.95;;;0.90;;
6342;SDS011;3204;42.698;23.298;2022-08-02T15:21:33;0.90;;;0.90;;
6342;SDS011;3204;42.698;23.298;2022-08-02T15:23:59;0.85;;;0.82;;
6342;SDS011;3204;42.698;23.298;2022-08-02T15:26:24;1.50;;;1.00;;
6342;SDS011;3204;42.698;23.298;2022-08-02T15:28:50;0.95;;;0.95;;
6342;SDS011;3204;42.698;23.298;2022-08-02T15:31:15;1.08;;;1.05;;
6342;SDS011;3204;42.698;23.298;2022-08-02T15:33:41;1.02;;;1.02;;
6342;SDS011;3204;42.698;23.298;2022-08-02T15:36:08;1.70;;;0.93;;
6342;SDS011;3204;42.698;23.298;2022-08-02T15:38:34;1.10;;;1.00;;
6342;SDS011;3204;42.698;23.298;2022-08-02T15:41:00;0.80;;;0.80;;
6342;SDS011;3204;42.698;23.298;2022-08-02T15:43:26;2.35;;;1.00;;
6342;SDS011;3204;42.698;23.298;2022-08-02T15:45:52;0.75;;;0.75;;
6342;SDS011;3204;42.698;23.298;2022-08-02T15:48:17;1.10;;;1.00;;
6342;SDS011;3204;42.698;23.298;2022-08-02T15:50:43;1.73;;;0.80;;
6342;SDS011;3204;42.698;23.298;2022-08-02T15:53:09;2.53;;;1.15;;
6342;SDS011;3204;42.698;23.298;2022-08-02T15:55:34;1.15;;;1.15;;